sensor_id;sensor_type;location;lat;lon;timestamp;pressure;altitude;pressure_sealevel;temperature;humidity
18987;BME280;9627;59.236;18.142;2023-03-03T00:01:33;101039.72;;;3.46;100.00
18987;BME280;9627;59.236;18.142;2023-03-03T00:04:01;101036.94;;;3.48;100.00
18987;BME280;9627;59.236;18.142;2023-03-03T00:06:28;101027.53;;;3.45;100.00
18987;BME280;9627;59.236;18.142;2023-03-03T00:08:56;101020.81;;;3.52;100.00
18987;BME280;9627;59.236;18.142;2023-03-03T00:11:22;101009.47;;;3.52;100.00
18987;BME280;9627;59.236;18.142;2023-03-03T00:13:50;101026.88;;;3.53;100.00
18987;BME280;9627;59.236;18.142;2023-03-03T00:16:21;101029.78;;;3.50;100.00
18987;BME280;9627;59.236;18.142;2023-03-03T00:18:48;101020.78;;;3.43;100.00
18987;BME280;9627;59.236;18.142;2023-03-03T00:21:24;101024.19;;;3.43;100.00
18987;BME280;9627;59.236;18.142;2023-03-03T00:23:53;101018.66;;;3.37;100.00
18987;BME280;9627;59.236;18.142;2023-03-03T00:26:21;101015.47;;;3.33;100.00
18987;BME280;9627;59.236;18.142;2023-03-03T00:28:49;101019.47;;;3.28;100.00
18987;BME280;9627;59.236;18.142;2023-03-03T00:31:17;101012.28;;;3.09;100.00
18987;BME280;9627;59.236;18.142;2023-03-03T00:36:50;101015.69;;;3.00;100.00
18987;BME280;9627;59.236;18.142;2023-03-03T00:39:18;101014.34;;;3.06;100.00
18987;BME280;9627;59.236;18.142;2023-03-03T00:41:47;101007.69;;;3.02;100.00
18987;BME280;9627;59.236;18.142;2023-03-03T00:47:01;101004.56;;;2.87;100.00
18987;BME280;9627;59.236;18.142;2023-03-03T00:49:28;101001.50;;;2.82;100.00
18987;BME280;9627;59.236;18.142;2023-03-03T00:51:57;101002.88;;;2.86;100.00
18987;BME280;9627;59.236;18.142;2023-03-03T01:00:29;101004.06;;;2.93;100.00
18987;BME280;9627;59.236;18.142;2023-03-03T01:02:56;101006.03;;;3.01;100.00
18987;BME280;9627;59.236;18.142;2023-03-03T01:05:24;100997.19;;;3.02;100.00
18987;BME280;9627;59.236;18.142;2023-03-03T01:07:53;100992.78;;;3.02;100.00
18987;BME280;9627;59.236;18.142;2023-03-03T01:10:20;101003.28;;;3.02;100.00
18987;BME280;9627;59.236;18.142;2023-03-03T01:12:47;101004.81;;;3.05;100.00
18987;BME280;9627;59.236;18.142;2023-03-03T01:15:14;100991.31;;;3.09;100.00
18987;BME280;9627;59.236;18.142;2023-03-03T01:17:41;100996.31;;;3.12;100.00
18987;BME280;9627;59.236;18.142;2023-03-03T01:20:09;100991.75;;;3.14;100.00
18987;BME280;9627;59.236;18.142;2023-03-03T01:22:37;100998.09;;;3.12;100.00
18987;BME280;9627;59.236;18.142;2023-03-03T01:25:06;101000.38;;;3.05;100.00
18987;BME280;9627;59.236;18.142;2023-03-03T01:27:33;100999.44;;;3.06;100.00
18987;BME280;9627;59.236;18.142;2023-03-03T01:30:00;100993.63;;;3.03;100.00
18987;BME280;9627;59.236;18.142;2023-03-03T01:32:27;100994.47;;;3.03;100.00
18987;BME280;9627;59.236;18.142;2023-03-03T01:34:54;100989.75;;;2.97;100.00
18987;BME280;9627;59.236;18.142;2023-03-03T01:37:21;100986.66;;;2.92;100.00
18987;BME280;9627;59.236;18.142;2023-03-03T01:39:48;100989.75;;;2.97;100.00
18987;BME280;9627;59.236;18.142;2023-03-03T01:42:17;100981.53;;;2.91;100.00
18987;BME280;9627;59.236;18.142;2023-03-03T01:44:45;100981.34;;;2.82;100.00
18987;BME280;9627;59.236;18.142;2023-03-03T01:47:12;100981.84;;;2.76;100.00
18987;BME280;9627;59.236;18.142;2023-03-03T01:49:41;100979.63;;;2.72;100.00
18987;BME280;9627;59.236;18.142;2023-03-03T01:52:11;100978.28;;;2.57;100.00
18987;BME280;9627;59.236;18.142;2023-03-03T01:54:40;100979.56;;;2.42;100.00
18987;BME280;9627;59.236;18.142;2023-03-03T01:57:12;100971.47;;;2.34;100.00
18987;BME280;9627;59.236;18.142;2023-03-03T01:59:43;100970.34;;;2.27;100.00
18987;BME280;9627;59.236;18.142;2023-03-03T02:02:12;100952.50;;;2.21;100.00
18987;BME280;9627;59.236;18.142;2023-03-03T02:04:39;100960.91;;;2.24;100.00
18987;BME280;9627;59.236;18.142;2023-03-03T02:07:06;100956.97;;;2.30;100.00
18987;BME280;9627;59.236;18.142;2023-03-03T02:09:37;100957.94;;;2.29;100.00
18987;BME280;9627;59.236;18.142;2023-03-03T02:12:07;100954.34;;;2.30;100.00
18987;BME280;9627;59.236;18.142;2023-03-03T02:14:36;100959.78;;;2.38;100.00
18987;BME280;9627;59.236;18.142;2023-03-03T02:17:05;100959.53;;;2.41;100.00
18987;BME280;9627;59.236;18.142;2023-03-03T02:19:34;100965.81;;;2.49;100.00
18987;BME280;9627;59.236;18.142;2023-03-03T02:22:04;100967.66;;;2.58;100.00
18987;BME280;9627;59.236;18.142;2023-03-03T02:24:32;100951.81;;;2.60;100.00
18987;BME280;9627;59.236;18.142;2023-03-03T02:27:02;100962.50;;;2.68;100.00
18987;BME280;9627;59.236;18.142;2023-03-03T02:29:29;100958.59;;;2.62;100.00
18987;BME280;9627;59.236;18.142;2023-03-03T02:31:56;100961.78;;;2.66;100.00
18987;BME280;9627;59.236;18.142;2023-03-03T02:34:23;100956.03;;;2.72;100.00
18987;BME280;9627;59.236;18.142;2023-03-03T02:36:50;100950.03;;;2.60;100.00
18987;BME280;9627;59.236;18.142;2023-03-03T02:39:17;100958.72;;;2.61;100.00
18987;BME280;9627;59.236;18.142;2023-03-03T02:41:45;100959.44;;;2.63;100.00
18987;BME280;9627;59.236;18.142;2023-03-03T02:44:17;100970.28;;;2.58;100.00
18987;BME280;9627;59.236;18.142;2023-03-03T02:46:46;100965.19;;;2.57;100.00
18987;BME280;9627;59.236;18.142;2023-03-03T02:49:15;100959.44;;;2.63;100.00
18987;BME280;9627;59.236;18.142;2023-03-03T02:51:43;100955.41;;;2.59;100.00
18987;BME280;9627;59.236;18.142;2023-03-03T02:54:10;100974.97;;;2.55;100.00
18987;BME280;9627;59.236;18.142;2023-03-03T02:56:37;100970.44;;;2.57;100.00
18987;BME280;9627;59.236;18.142;2023-03-03T02:59:05;100977.00;;;2.51;100.00
18987;BME280;9627;59.236;18.142;2023-03-03T03:01:34;100969.16;;;2.51;100.00
18987;BME280;9627;59.236;18.142;2023-03-03T03:04:02;100962.09;;;2.52;100.00
18987;BME280;9627;59.236;18.142;2023-03-03T03:06:31;100958.75;;;2.50;100.00
18987;BME280;9627;59.236;18.142;2023-03-03T03:08:58;100969.50;;;2.47;100.00
18987;BME280;9627;59.236;18.142;2023-03-03T03:11:25;100964.28;;;2.47;100.00
18987;BME280;9627;59.236;18.142;2023-03-03T03:13:52;100957.81;;;2.51;100.00
18987;BME280;9627;59.236;18.142;2023-03-03T03:16:19;100967.97;;;2.44;100.00
18987;BME280;9627;59.236;18.142;2023-03-03T03:18:47;100973.09;;;2.46;100.00
18987;BME280;9627;59.236;18.142;2023-03-03T03:21:15;100970.47;;;2.46;100.00
18987;BME280;9627;59.236;18.142;2023-03-03T03:23:42;100962.84;;;2.43;100.00
18987;BME280;9627;59.236;18.142;2023-03-03T03:26:09;100969.25;;;2.50;100.00
18987;BME280;9627;59.236;18.142;2023-03-03T03:28:37;100958.31;;;2.45;100.00
18987;BME280;9627;59.236;18.142;2023-03-03T03:31:04;100951.94;;;2.38;100.00
18987;BME280;9627;59.236;18.142;2023-03-03T03:33:32;100954.69;;;2.36;100.00
18987;BME280;9627;59.236;18.142;2023-03-03T03:36:01;100955.97;;;2.42;100.00
18987;BME280;9627;59.236;18.142;2023-03-03T03:38:28;100946.00;;;2.36;100.00
18987;BME280;9627;59.236;18.142;2023-03-03T03:40:55;100937.78;;;2.29;100.00
18987;BME280;9627;59.236;18.142;2023-03-03T03:43:22;100939.97;;;2.24;100.00
18987;BME280;9627;59.236;18.142;2023-03-03T03:45:49;100942.59;;;2.24;100.00
18987;BME280;9627;59.236;18.142;2023-03-03T03:48:16;100944.50;;;2.22;100.00
18987;BME280;9627;59.236;18.142;2023-03-03T03:50:44;100946.28;;;2.22;100.00
18987;BME280;9627;59.236;18.142;2023-03-03T03:53:12;100948.09;;;2.10;100.00
18987;BME280;9627;59.236;18.142;2023-03-03T03:55:39;100937.69;;;1.99;100.00
18987;BME280;9627;59.236;18.142;2023-03-03T03:58:06;100946.88;;;1.94;100.00
18987;BME280;9627;59.236;18.142;2023-03-03T04:00:33;100943.69;;;1.79;100.00
18987;BME280;9627;59.236;18.142;2023-03-03T04:03:00;100936.22;;;1.63;100.00
18987;BME280;9627;59.236;18.142;2023-03-03T04:05:27;100930.78;;;1.55;100.00
18987;BME280;9627;59.236;18.142;2023-03-03T04:07:54;100940.53;;;1.53;100.00
18987;BME280;9627;59.236;18.142;2023-03-03T04:10:23;100939.59;;;1.54;100.00
18987;BME280;9627;59.236;18.142;2023-03-03T04:12:50;100936.25;;;1.41;100.00
18987;BME280;9627;59.236;18.142;2023-03-03T04:15:16;100923.56;;;1.37;100.00
18987;BME280;9627;59.236;18.142;2023-03-03T04:17:43;100921.66;;;1.28;100.00
18987;BME280;9627;59.236;18.142;2023-03-03T04:20:11;100923.66;;;1.24;100.00
18987;BME280;9627;59.236;18.142;2023-03-03T04:22:39;100919.53;;;1.22;100.00
18987;BME280;9627;59.236;18.142;2023-03-03T04:25:06;100921.44;;;1.09;100.00
18987;BME280;9627;59.236;18.142;2023-03-03T04:27:35;100915.50;;;1.07;100.00
18987;BME280;9627;59.236;18.142;2023-03-03T04:30:03;100913.81;;;1.06;100.00
18987;BME280;9627;59.236;18.142;2023-03-03T04:32:30;100913.34;;;1.01;100.00
18987;BME280;9627;59.236;18.142;2023-03-03T04:34:58;100908.47;;;0.96;100.00
18987;BME280;9627;59.236;18.142;2023-03-03T04:37:25;100917.72;;;1.00;100.00
18987;BME280;9627;59.236;18.142;2023-03-03T04:39:52;100914.06;;;1.03;100.00
18987;BME280;9627;59.236;18.142;2023-03-03T04:42:19;100919.75;;;0.97;100.00
18987;BME280;9627;59.236;18.142;2023-03-03T04:44:47;100909.78;;;0.90;100.00
18987;BME280;9627;59.236;18.142;2023-03-03T04:47:14;100904.41;;;0.92;100.00
18987;BME280;9627;59.236;18.142;2023-03-03T04:49:41;100906.91;;;0.93;100.00
18987;BME280;9627;59.236;18.142;2023-03-03T04:52:08;100901.81;;;0.92;100.00
18987;BME280;9627;59.236;18.142;2023-03-03T04:54:35;100903.22;;;0.85;100.00
18987;BME280;9627;59.236;18.142;2023-03-03T04:57:02;100899.31;;;0.90;100.00
18987;BME280;9627;59.236;18.142;2023-03-03T04:59:29;100901.47;;;0.97;100.00
18987;BME280;9627;59.236;18.142;2023-03-03T05:01:58;100890.53;;;0.91;100.00
18987;BME280;9627;59.236;18.142;2023-03-03T05:04:25;100892.31;;;0.91;100.00
18987;BME280;9627;59.236;18.142;2023-03-03T05:06:51;100887.31;;;0.77;100.00
18987;BME280;9627;59.236;18.142;2023-03-03T05:09:18;100881.38;;;0.75;100.00
18987;BME280;9627;59.236;18.142;2023-03-03T05:11:45;100880.50;;;0.63;100.00
18987;BME280;9627;59.236;18.142;2023-03-03T05:14:12;100883.59;;;0.57;100.00
18987;BME280;9627;59.236;18.142;2023-03-03T05:16:39;100870.91;;;0.53;100.00
18987;BME280;9627;59.236;18.142;2023-03-03T05:19:08;100869.47;;;0.49;100.00
18987;BME280;9627;59.236;18.142;2023-03-03T05:21:35;100866.59;;;0.52;100.00
18987;BME280;9627;59.236;18.142;2023-03-03T05:24:06;100874.09;;;0.56;100.00
18987;BME280;9627;59.236;18.142;2023-03-03T05:26:33;100872.94;;;0.60;100.00
18987;BME280;9627;59.236;18.142;2023-03-03T05:29:00;100869.34;;;0.61;100.00
18987;BME280;9627;59.236;18.142;2023-03-03T05:31:27;100865.94;;;0.61;100.00
18987;BME280;9627;59.236;18.142;2023-03-03T05:33:54;100871.75;;;0.64;100.00
18987;BME280;9627;59.236;18.142;2023-03-03T05:36:22;100865.22;;;0.70;100.00
18987;BME280;9627;59.236;18.142;2023-03-03T05:38:49;100867.94;;;0.79;100.00
18987;BME280;9627;59.236;18.142;2023-03-03T05:41:17;100863.31;;;0.83;100.00
18987;BME280;9627;59.236;18.142;2023-03-03T05:43:43;100850.72;;;0.88;100.00
18987;BME280;9627;59.236;18.142;2023-03-03T05:46:10;100856.91;;;0.87;100.00
18987;BME280;9627;59.236;18.142;2023-03-03T05:48:37;100852.38;;;0.89;100.00
18987;BME280;9627;59.236;18.142;2023-03-03T05:51:04;100856.31;;;0.94;100.00
18987;BME280;9627;59.236;18.142;2023-03-03T05:53:33;100859.84;;;0.93;100.00
18987;BME280;9627;59.236;18.142;2023-03-03T05:56:00;100864.75;;;0.87;100.00
18987;BME280;9627;59.236;18.142;2023-03-03T05:58:27;100863.78;;;0.88;100.00
18987;BME280;9627;59.236;18.142;2023-03-03T06:00:54;100866.63;;;0.96;100.00
18987;BME280;9627;59.236;18.142;2023-03-03T06:03:21;100867.31;;;1.20;100.00
18987;BME280;9627;59.236;18.142;2023-03-03T06:05:48;100864.22;;;1.26;100.00
18987;BME280;9627;59.236;18.142;2023-03-03T06:08:15;100868.28;;;1.19;100.00
18987;BME280;9627;59.236;18.142;2023-03-03T06:10:44;100867.56;;;1.28;100.00
18987;BME280;9627;59.236;18.142;2023-03-03T06:13:11;100860.66;;;1.38;100.00
18987;BME280;9627;59.236;18.142;2023-03-03T06:15:38;100860.31;;;1.74;100.00
18987;BME280;9627;59.236;18.142;2023-03-03T06:18:05;100866.19;;;2.40;100.00
18987;BME280;9627;59.236;18.142;2023-03-03T06:20:32;100870.84;;;2.57;100.00
18987;BME280;9627;59.236;18.142;2023-03-03T06:22:59;100865.88;;;2.63;100.00
18987;BME280;9627;59.236;18.142;2023-03-03T06:25:26;100859.53;;;2.36;100.00
18987;BME280;9627;59.236;18.142;2023-03-03T06:27:55;100863.50;;;2.10;100.00
18987;BME280;9627;59.236;18.142;2023-03-03T06:30:22;100856.06;;;1.94;100.00
18987;BME280;9627;59.236;18.142;2023-03-03T06:32:51;100850.06;;;2.03;100.00
18987;BME280;9627;59.236;18.142;2023-03-03T06:35:17;100854.50;;;2.44;100.00
18987;BME280;9627;59.236;18.142;2023-03-03T06:37:44;100845.84;;;2.83;100.00
18987;BME280;9627;59.236;18.142;2023-03-03T06:40:14;100845.34;;;3.48;100.00
18987;BME280;9627;59.236;18.142;2023-03-03T06:42:41;100854.63;;;4.19;100.00
18987;BME280;9627;59.236;18.142;2023-03-03T06:45:11;100860.97;;;4.91;100.00
18987;BME280;9627;59.236;18.142;2023-03-03T06:47:38;100863.16;;;5.68;100.00
18987;BME280;9627;59.236;18.142;2023-03-03T06:50:05;100863.19;;;6.03;100.00
18987;BME280;9627;59.236;18.142;2023-03-03T06:52:32;100870.56;;;6.17;100.00
18987;BME280;9627;59.236;18.142;2023-03-03T06:54:59;100862.50;;;6.36;100.00
18987;BME280;9627;59.236;18.142;2023-03-03T06:57:28;100875.34;;;6.90;100.00
18987;BME280;9627;59.236;18.142;2023-03-03T06:59:56;100870.22;;;7.14;100.00
18987;BME280;9627;59.236;18.142;2023-03-03T07:02:24;100878.00;;;7.24;100.00
18987;BME280;9627;59.236;18.142;2023-03-03T07:04:52;100871.88;;;7.73;100.00
18987;BME280;9627;59.236;18.142;2023-03-03T07:07:22;100881.97;;;7.70;100.00
18987;BME280;9627;59.236;18.142;2023-03-03T07:09:50;100886.94;;;7.81;100.00
18987;BME280;9627;59.236;18.142;2023-03-03T07:12:18;100877.06;;;8.23;100.00
18987;BME280;9627;59.236;18.142;2023-03-03T07:14:46;100884.75;;;7.18;100.00
18987;BME280;9627;59.236;18.142;2023-03-03T07:17:16;100868.44;;;6.64;100.00
18987;BME280;9627;59.236;18.142;2023-03-03T07:19:45;100878.19;;;6.63;100.00
18987;BME280;9627;59.236;18.142;2023-03-03T07:22:13;100876.44;;;7.05;100.00
18987;BME280;9627;59.236;18.142;2023-03-03T07:24:41;100862.22;;;8.30;100.00
18987;BME280;9627;59.236;18.142;2023-03-03T07:27:10;100858.72;;;8.54;100.00
18987;BME280;9627;59.236;18.142;2023-03-03T07:29:37;100843.75;;;8.85;100.00
18987;BME280;9627;59.236;18.142;2023-03-03T07:32:10;100856.19;;;9.23;100.00
18987;BME280;9627;59.236;18.142;2023-03-03T07:34:42;100858.28;;;9.44;100.00
18987;BME280;9627;59.236;18.142;2023-03-03T07:37:17;100854.19;;;9.25;100.00
18987;BME280;9627;59.236;18.142;2023-03-03T07:39:47;100842.38;;;9.44;100.00
18987;BME280;9627;59.236;18.142;2023-03-03T07:42:20;100843.50;;;9.49;100.00
18987;BME280;9627;59.236;18.142;2023-03-03T07:44:47;100840.44;;;9.29;100.00
18987;BME280;9627;59.236;18.142;2023-03-03T07:47:20;100835.13;;;9.38;100.00
18987;BME280;9627;59.236;18.142;2023-03-03T07:49:48;100833.84;;;9.25;100.00
18987;BME280;9627;59.236;18.142;2023-03-03T07:52:19;100827.81;;;9.70;100.00
18987;BME280;9627;59.236;18.142;2023-03-03T07:54:49;100814.47;;;9.78;100.00
18987;BME280;9627;59.236;18.142;2023-03-03T07:57:18;100808.13;;;9.87;100.00
18987;BME280;9627;59.236;18.142;2023-03-03T07:59:47;100811.50;;;10.70;100.00
18987;BME280;9627;59.236;18.142;2023-03-03T08:02:32;100806.13;;;10.78;100.00
18987;BME280;9627;59.236;18.142;2023-03-03T08:05:00;100802.75;;;10.84;100.00
18987;BME280;9627;59.236;18.142;2023-03-03T08:07:29;100801.81;;;10.77;100.00
18987;BME280;9627;59.236;18.142;2023-03-03T08:09:56;100801.78;;;11.06;100.00
18987;BME280;9627;59.236;18.142;2023-03-03T08:12:35;100790.28;;;10.70;100.00
18987;BME280;9627;59.236;18.142;2023-03-03T08:15:11;100785.38;;;11.17;100.00
18987;BME280;9627;59.236;18.142;2023-03-03T08:17:40;100782.59;;;11.26;100.00
18987;BME280;9627;59.236;18.142;2023-03-03T08:22:52;100773.69;;;10.68;100.00
18987;BME280;9627;59.236;18.142;2023-03-03T08:25:19;100771.88;;;10.98;100.00
18987;BME280;9627;59.236;18.142;2023-03-03T08:27:47;100776.53;;;10.96;100.00
18987;BME280;9627;59.236;18.142;2023-03-03T08:30:14;100772.81;;;10.61;100.00
18987;BME280;9627;59.236;18.142;2023-03-03T08:32:41;100770.50;;;10.29;100.00
18987;BME280;9627;59.236;18.142;2023-03-03T08:35:08;100770.50;;;10.06;100.00
18987;BME280;9627;59.236;18.142;2023-03-03T08:37:35;100757.78;;;10.02;100.00
18987;BME280;9627;59.236;18.142;2023-03-03T08:40:04;100759.34;;;9.74;100.00
18987;BME280;9627;59.236;18.142;2023-03-03T08:42:31;100771.13;;;8.87;100.00
18987;BME280;9627;59.236;18.142;2023-03-03T08:44:58;100767.91;;;8.69;100.00
18987;BME280;9627;59.236;18.142;2023-03-03T08:47:25;100759.63;;;9.33;100.00
18987;BME280;9627;59.236;18.142;2023-03-03T08:49:52;100756.81;;;9.04;100.00
18987;BME280;9627;59.236;18.142;2023-03-03T08:52:19;100754.72;;;8.53;100.00
18987;BME280;9627;59.236;18.142;2023-03-03T08:54:46;100753.13;;;8.12;100.00
18987;BME280;9627;59.236;18.142;2023-03-03T08:57:14;100746.19;;;7.79;100.00
18987;BME280;9627;59.236;18.142;2023-03-03T08:59:41;100743.22;;;7.58;100.00
18987;BME280;9627;59.236;18.142;2023-03-03T09:02:08;100746.03;;;7.56;100.00
18987;BME280;9627;59.236;18.142;2023-03-03T09:04:35;100733.66;;;7.73;100.00
18987;BME280;9627;59.236;18.142;2023-03-03T09:07:02;100729.03;;;7.59;100.00
18987;BME280;9627;59.236;18.142;2023-03-03T09:09:29;100733.13;;;8.25;100.00
18987;BME280;9627;59.236;18.142;2023-03-03T09:11:57;100720.06;;;8.32;100.00
18987;BME280;9627;59.236;18.142;2023-03-03T09:14:26;100717.09;;;8.35;100.00
18987;BME280;9627;59.236;18.142;2023-03-03T09:16:54;100716.22;;;8.43;100.00
18987;BME280;9627;59.236;18.142;2023-03-03T09:19:22;100706.69;;;7.93;100.00
18987;BME280;9627;59.236;18.142;2023-03-03T09:21:49;100698.63;;;7.87;100.00
18987;BME280;9627;59.236;18.142;2023-03-03T09:24:21;100692.69;;;7.93;100.00
18987;BME280;9627;59.236;18.142;2023-03-03T09:26:50;100691.63;;;8.73;100.00
18987;BME280;9627;59.236;18.142;2023-03-03T09:29:22;100685.94;;;8.84;100.00
18987;BME280;9627;59.236;18.142;2023-03-03T09:31:52;100687.16;;;8.73;100.00
18987;BME280;9627;59.236;18.142;2023-03-03T09:34:21;100673.63;;;8.21;100.00
18987;BME280;9627;59.236;18.142;2023-03-03T09:36:49;100668.06;;;7.92;100.00
18987;BME280;9627;59.236;18.142;2023-03-03T09:39:17;100671.09;;;7.41;100.00
18987;BME280;9627;59.236;18.142;2023-03-03T09:41:47;100670.09;;;7.58;100.00
18987;BME280;9627;59.236;18.142;2023-03-03T09:47:17;100647.94;;;7.67;100.00
18987;BME280;9627;59.236;18.142;2023-03-03T09:49:52;100628.66;;;7.59;100.00
18987;BME280;9627;59.236;18.142;2023-03-03T09:52:26;100636.09;;;7.47;100.00
18987;BME280;9627;59.236;18.142;2023-03-03T09:55:00;100626.69;;;7.12;100.00
18987;BME280;9627;59.236;18.142;2023-03-03T09:57:37;100615.13;;;7.37;100.00
18987;BME280;9627;59.236;18.142;2023-03-03T10:00:19;100606.56;;;7.35;100.00
18987;BME280;9627;59.236;18.142;2023-03-03T10:02:54;100590.97;;;7.65;100.00
18987;BME280;9627;59.236;18.142;2023-03-03T10:05:28;100582.25;;;7.56;100.00
18987;BME280;9627;59.236;18.142;2023-03-03T10:08:08;100583.41;;;7.45;100.00
18987;BME280;9627;59.236;18.142;2023-03-03T10:11:00;100578.69;;;7.17;100.00
18987;BME280;9627;59.236;18.142;2023-03-03T10:13:40;100568.25;;;7.23;100.00
18987;BME280;9627;59.236;18.142;2023-03-03T10:16:18;100572.56;;;7.24;100.00
18987;BME280;9627;59.236;18.142;2023-03-03T10:18:49;100572.56;;;7.08;100.00
18987;BME280;9627;59.236;18.142;2023-03-03T10:21:20;100575.53;;;7.29;100.00
18987;BME280;9627;59.236;18.142;2023-03-03T10:23:51;100569.91;;;6.92;100.00
18987;BME280;9627;59.236;18.142;2023-03-03T10:26:21;100579.59;;;6.68;100.00
18987;BME280;9627;59.236;18.142;2023-03-03T10:28:55;100576.16;;;6.59;100.00
18987;BME280;9627;59.236;18.142;2023-03-03T10:31:31;100569.53;;;6.47;100.00
18987;BME280;9627;59.236;18.142;2023-03-03T10:34:05;100567.34;;;6.34;100.00
18987;BME280;9627;59.236;18.142;2023-03-03T10:36:37;100556.34;;;5.97;100.00
18987;BME280;9627;59.236;18.142;2023-03-03T10:39:21;100570.50;;;5.71;100.00
18987;BME280;9627;59.236;18.142;2023-03-03T10:41:59;100557.41;;;5.53;100.00
18987;BME280;9627;59.236;18.142;2023-03-03T10:44:34;100548.19;;;5.49;100.00
18987;BME280;9627;59.236;18.142;2023-03-03T10:47:16;100542.34;;;5.37;100.00
18987;BME280;9627;59.236;18.142;2023-03-03T10:49:53;100526.66;;;5.28;100.00
18987;BME280;9627;59.236;18.142;2023-03-03T10:52:26;100516.53;;;5.15;100.00
18987;BME280;9627;59.236;18.142;2023-03-03T10:55:02;100524.09;;;4.93;100.00
18987;BME280;9627;59.236;18.142;2023-03-03T10:57:35;100520.25;;;5.05;100.00
18987;BME280;9627;59.236;18.142;2023-03-03T11:00:14;100508.28;;;5.10;100.00
18987;BME280;9627;59.236;18.142;2023-03-03T11:02:42;100503.69;;;5.12;100.00
18987;BME280;9627;59.236;18.142;2023-03-03T11:05:22;100493.38;;;4.93;100.00
18987;BME280;9627;59.236;18.142;2023-03-03T11:07:53;100492.09;;;4.80;100.00
18987;BME280;9627;59.236;18.142;2023-03-03T11:10:46;100482.00;;;4.49;100.00
18987;BME280;9627;59.236;18.142;2023-03-03T11:13:16;100479.38;;;4.32;100.00
18987;BME280;9627;59.236;18.142;2023-03-03T11:18:44;100438.41;;;4.21;100.00
18987;BME280;9627;59.236;18.142;2023-03-03T11:21:14;100427.09;;;3.94;100.00
18987;BME280;9627;59.236;18.142;2023-03-03T11:23:49;100418.09;;;3.96;100.00
18987;BME280;9627;59.236;18.142;2023-03-03T11:26:22;100394.41;;;4.06;100.00
18987;BME280;9627;59.236;18.142;2023-03-03T11:29:02;100394.16;;;3.82;100.00
18987;BME280;9627;59.236;18.142;2023-03-03T11:31:35;100383.22;;;3.86;100.00
18987;BME280;9627;59.236;18.142;2023-03-03T11:34:05;100378.94;;;3.67;100.00
18987;BME280;9627;59.236;18.142;2023-03-03T11:36:40;100361.44;;;3.58;100.00
18987;BME280;9627;59.236;18.142;2023-03-03T11:39:08;100374.47;;;3.50;100.00
18987;BME280;9627;59.236;18.142;2023-03-03T11:41:38;100357.06;;;3.49;100.00
18987;BME280;9627;59.236;18.142;2023-03-03T11:44:14;100349.09;;;3.41;100.00
18987;BME280;9627;59.236;18.142;2023-03-03T11:46:44;100344.59;;;3.34;100.00
18987;BME280;9627;59.236;18.142;2023-03-03T11:49:13;100331.19;;;3.37;100.00
18987;BME280;9627;59.236;18.142;2023-03-03T11:51:46;100324.47;;;3.25;100.00
18987;BME280;9627;59.236;18.142;2023-03-03T11:54:16;100335.56;;;3.19;100.00
18987;BME280;9627;59.236;18.142;2023-03-03T11:56:46;100332.13;;;3.18;100.00
18987;BME280;9627;59.236;18.142;2023-03-03T11:59:24;100320.84;;;3.08;100.00
18987;BME280;9627;59.236;18.142;2023-03-03T12:01:56;100296.09;;;3.20;100.00
18987;BME280;9627;59.236;18.142;2023-03-03T12:04:25;100304.38;;;3.43;100.00
18987;BME280;9627;59.236;18.142;2023-03-03T12:07:01;100292.13;;;3.51;100.00
18987;BME280;9627;59.236;18.142;2023-03-03T12:09:34;100290.78;;;3.65;100.00
18987;BME280;9627;59.236;18.142;2023-03-03T12:12:05;100271.13;;;3.51;100.00
18987;BME280;9627;59.236;18.142;2023-03-03T12:14:43;100260.41;;;3.62;100.00
18987;BME280;9627;59.236;18.142;2023-03-03T12:17:17;100245.13;;;3.75;100.00
18987;BME280;9627;59.236;18.142;2023-03-03T12:19:48;100246.16;;;3.65;100.00
18987;BME280;9627;59.236;18.142;2023-03-03T12:25:19;100210.41;;;3.64;100.00
18987;BME280;9627;59.236;18.142;2023-03-03T12:27:49;100187.41;;;3.84;100.00
18987;BME280;9627;59.236;18.142;2023-03-03T12:30:26;100186.72;;;3.82;100.00
18987;BME280;9627;59.236;18.142;2023-03-03T12:33:00;100167.75;;;3.88;100.00
18987;BME280;9627;59.236;18.142;2023-03-03T12:35:30;100159.19;;;3.86;100.00
18987;BME280;9627;59.236;18.142;2023-03-03T12:38:02;100145.78;;;3.97;100.00
18987;BME280;9627;59.236;18.142;2023-03-03T12:40:35;100119.72;;;3.69;100.00
18987;BME280;9627;59.236;18.142;2023-03-03T12:43:16;100113.69;;;3.77;100.00
18987;BME280;9627;59.236;18.142;2023-03-03T12:45:50;100108.75;;;3.74;100.00
18987;BME280;9627;59.236;18.142;2023-03-03T12:48:21;100127.38;;;3.89;100.00
18987;BME280;9627;59.236;18.142;2023-03-03T12:50:53;100116.72;;;3.90;100.00
18987;BME280;9627;59.236;18.142;2023-03-03T12:53:28;100115.31;;;4.04;100.00
18987;BME280;9627;59.236;18.142;2023-03-03T12:56:00;100099.81;;;4.26;100.00
18987;BME280;9627;59.236;18.142;2023-03-03T12:58:32;100094.81;;;4.57;100.00
18987;BME280;9627;59.236;18.142;2023-03-03T13:01:05;100091.06;;;4.59;100.00
18987;BME280;9627;59.236;18.142;2023-03-03T13:03:37;100083.16;;;4.67;100.00
18987;BME280;9627;59.236;18.142;2023-03-03T13:06:08;100085.16;;;4.73;100.00
18987;BME280;9627;59.236;18.142;2023-03-03T13:08:41;100074.00;;;4.80;100.00
18987;BME280;9627;59.236;18.142;2023-03-03T13:14:02;100070.22;;;4.82;100.00
18987;BME280;9627;59.236;18.142;2023-03-03T13:16:36;100066.56;;;4.75;100.00
18987;BME280;9627;59.236;18.142;2023-03-03T13:19:06;100057.22;;;4.72;100.00
18987;BME280;9627;59.236;18.142;2023-03-03T13:21:35;100046.72;;;4.97;100.00
18987;BME280;9627;59.236;18.142;2023-03-03T13:24:06;100056.56;;;4.95;100.00
18987;BME280;9627;59.236;18.142;2023-03-03T13:26:38;100052.47;;;5.00;100.00
18987;BME280;9627;59.236;18.142;2023-03-03T13:29:11;100033.56;;;4.89;100.00